Camp Dodge, Iowa
Current Conditions -  °F | °C
As of 10:15 PM on Monday 22 Dec 2014 (Local Time) from KIKV Reporting Station
Unknown Precip Unknown Precip  
Wind Chill:   Ceiling: 400
Heat Index:   Visibility: 5mi
Dew Point:   Wind: 3mph
Humidity: 100%   Direction: 60°ENE
Pressure: 29.44"   Gusts: NA
Location:  41.689°N, 93.7182°W
Report Text: KIKV 230415Z AUTO 06003KT 5SM -UP OVC004 04/04 A2944 RMK AO2
Loading
Personal Weather Stations






























Interactive Weather Map New forecast layout! Learn more

10-Day Weather Forecast

Advertisements
Track Severe Weather on mobile